Time;durP1;ratioP1;P1;durP2;ratioP2;P2;SDS_P1;SDS_P2;PMS_P1;PMS_P2;Temp;Humidity;BMP_temperature;BMP_pressure;BME280_temperature;BME280_humidity;BME280_pressure;Samples;Min_cycle;Max_cycle;Signal;HPM_P1;HPM_P2
2023/08/06 00:00:51;;;;;;;7.90;7.50;;;18.20;45.40;;;;;;6245785;23;20230;-76
2023/08/06 00:03:17;;;;;;;7.73;7.33;;;18.30;45.40;;;;;;6218713;23;20178;-76
2023/08/06 00:05:43;;;;;;;8.90;8.40;;;18.30;44.80;;;;;;6246178;22;20513;-76
2023/08/06 00:08:08;;;;;;;8.77;8.03;;;18.20;45.00;;;;;;6245511;23;20158;-76
2023/08/06 00:10:34;;;;;;;7.60;7.30;;;18.20;45.70;;;;;;6245266;23;20374;-77
2023/08/06 00:12:59;;;;;;;8.07;7.67;;;18.20;44.90;;;;;;6244917;23;20226;-76
2023/08/06 00:15:25;;;;;;;8.47;8.00;;;18.10;44.40;;;;;;6245320;22;20152;-76
2023/08/06 00:17:50;;;;;;;7.97;7.57;;;18.00;43.80;;;;;;6219949;23;20483;-77
2023/08/06 00:20:16;;;;;;;7.80;7.40;;;17.90;44.60;;;;;;6245105;23;20543;-77
2023/08/06 00:22:41;;;;;;;8.03;7.70;;;17.80;45.40;;;;;;6218795;23;20163;-76
2023/08/06 00:25:07;;;;;;;8.80;8.30;;;17.70;46.50;;;;;;6219034;23;20205;-77
2023/08/06 00:27:33;;;;;;;8.40;8.00;;;17.60;47.20;;;;;;6247382;22;20179;-77
2023/08/06 00:29:58;;;;;;;8.67;8.17;;;17.50;47.90;;;;;;6221157;23;20383;-77
2023/08/06 00:32:24;;;;;;;8.23;7.83;;;17.40;48.10;;;;;;6218421;23;20156;-77
2023/08/06 00:34:50;;;;;;;7.67;7.27;;;17.40;48.10;;;;;;6245342;23;20155;-76
2023/08/06 00:37:18;;;;;;;7.80;7.40;;;17.30;48.00;;;;;;6219476;23;20175;-77
2023/08/06 00:39:44;;;;;;;7.43;7.10;;;17.30;47.30;;;;;;6245463;23;20522;-77
2023/08/06 00:42:11;;;;;;;7.80;7.40;;;17.40;47.50;;;;;;6248045;23;20366;-77
2023/08/06 00:44:37;;;;;;;7.33;6.83;;;17.60;46.60;;;;;;6221315;23;20646;-77
2023/08/06 00:47:03;;;;;;;7.63;7.33;;;17.70;45.40;;;;;;6246397;22;20734;-77
2023/08/06 00:49:28;;;;;;;7.00;6.70;;;17.70;44.30;;;;;;6244363;23;20390;-77
2023/08/06 00:51:56;;;;;;;7.33;7.00;;;17.80;42.90;;;;;;6245750;23;20155;-77
2023/08/06 00:54:22;;;;;;;7.93;7.53;;;17.70;40.40;;;;;;6218692;23;20151;-77
2023/08/06 00:56:48;;;;;;;7.77;7.40;;;17.70;41.10;;;;;;6245188;22;20398;-77
2023/08/06 00:59:14;;;;;;;8.23;7.80;;;17.70;41.10;;;;;;6217237;23;20413;-77
2023/08/06 01:01:39;;;;;;;7.67;7.37;;;17.80;40.80;;;;;;6244208;23;20602;-77
2023/08/06 01:04:05;;;;;;;8.00;7.70;;;17.80;40.30;;;;;;6218095;23;20425;-77
2023/08/06 01:06:44;;;;;;;8.07;7.57;;;17.90;40.00;;;;;;6244147;22;20167;-77
2023/08/06 01:09:29;;;;;;;7.70;7.40;;;17.90;39.10;;;;;;6244139;23;20139;-76
2023/08/06 01:12:18;;;;;;;7.93;7.63;;;17.90;38.80;;;;;;6244525;23;20409;-76
2023/08/06 01:15:18;;;;;;;7.83;7.43;;;17.90;38.90;;;;;;6187481;23;20371;-75
2023/08/06 01:17:44;;;;;;;8.37;7.87;;;17.90;39.40;;;;;;6245058;22;20394;-76
2023/08/06 01:20:10;;;;;;;8.20;7.90;;;18.00;39.40;;;;;;6244451;23;20378;-76
2023/08/06 01:22:36;;;;;;;8.70;8.30;;;17.80;38.80;;;;;;6217838;23;20468;-76
2023/08/06 01:25:01;;;;;;;8.70;8.20;;;17.60;40.00;;;;;;6217730;23;20237;-76
2023/08/06 01:27:37;;;;;;;8.27;7.97;;;17.50;40.60;;;;;;6244844;22;20162;-77
2023/08/06 01:30:11;;;;;;;8.90;8.50;;;17.20;41.90;;;;;;6244716;23;20473;-77
2023/08/06 01:32:42;;;;;;;8.50;8.10;;;17.10;42.80;;;;;;6217940;23;20373;-77
2023/08/06 01:35:11;;;;;;;8.60;8.10;;;17.00;43.50;;;;;;6244510;23;20390;-76
2023/08/06 01:37:37;;;;;;;8.20;7.90;;;17.00;43.20;;;;;;6217714;23;20786;-76
2023/08/06 01:40:09;;;;;;;7.60;7.30;;;17.00;40.80;;;;;;6244175;23;20386;-76
2023/08/06 01:42:35;;;;;;;8.27;7.90;;;16.90;40.30;;;;;;6217989;23;20363;-76
2023/08/06 01:45:00;;;;;;;7.37;6.93;;;16.90;40.00;;;;;;6244189;23;20429;-77
2023/08/06 01:47:26;;;;;;;7.60;7.30;;;16.80;39.40;;;;;;6217749;23;20203;-76
2023/08/06 01:49:51;;;;;;;7.67;7.37;;;16.80;39.40;;;;;;6244397;23;20687;-76
2023/08/06 01:52:17;;;;;;;8.30;7.80;;;16.80;38.60;;;;;;6244866;23;20219;-76
2023/08/06 01:54:42;;;;;;;7.80;7.50;;;16.80;38.80;;;;;;6244886;23;20235;-75
2023/08/06 01:57:08;;;;;;;8.63;8.23;;;16.60;38.50;;;;;;6244472;22;20218;-76
2023/08/06 01:59:33;;;;;;;7.30;6.80;;;16.60;39.30;;;;;;6244385;23;20179;-76
2023/08/06 02:01:59;;;;;;;7.10;6.70;;;16.60;38.80;;;;;;6244419;23;20576;-76
2023/08/06 02:04:24;;;;;;;7.40;7.10;;;16.50;39.40;;;;;;6244339;23;20167;-76
2023/08/06 02:06:50;;;;;;;7.70;7.40;;;16.50;39.30;;;;;;6218211;23;20695;-76
2023/08/06 02:09:15;;;;;;;7.70;7.37;;;16.60;39.40;;;;;;6217566;23;20175;-76
2023/08/06 02:11:41;;;;;;;7.77;7.37;;;16.60;39.40;;;;;;6244556;23;20219;-78
2023/08/06 02:14:06;;;;;;;7.60;7.17;;;16.50;39.80;;;;;;6217819;23;20219;-76
2023/08/06 02:16:32;;;;;;;8.70;8.13;;;16.50;39.70;;;;;;6244787;22;20172;-76
2023/08/06 02:18:57;;;;;;;8.07;7.57;;;16.40;39.70;;;;;;6244909;23;20201;-76
2023/08/06 02:21:23;;;;;;;7.33;7.03;;;16.30;39.90;;;;;;6219566;23;20228;-77
2023/08/06 02:23:48;;;;;;;7.57;7.07;;;16.40;40.50;;;;;;6219073;23;20235;-76
2023/08/06 02:26:14;;;;;;;8.10;7.70;;;16.30;39.60;;;;;;6245288;22;20242;-77
2023/08/06 02:28:39;;;;;;;7.27;6.97;;;16.30;40.10;;;;;;6246926;23;20152;-76
2023/08/06 02:31:06;;;;;;;7.37;7.07;;;16.20;40.30;;;;;;6246667;23;20538;-77
2023/08/06 02:33:32;;;;;;;8.40;7.90;;;16.10;40.20;;;;;;6247400;23;20486;-77
2023/08/06 02:36:03;;;;;;;7.13;6.80;;;16.10;40.30;;;;;;6246615;22;20402;-76
2023/08/06 02:38:28;;;;;;;7.30;7.00;;;16.10;40.30;;;;;;6246622;23;20470;-75
2023/08/06 02:40:54;;;;;;;8.40;8.00;;;16.20;39.60;;;;;;6219250;23;20594;-75
2023/08/06 02:43:20;;;;;;;8.03;7.50;;;16.20;38.90;;;;;;6245220;23;20151;-75
2023/08/06 02:45:46;;;;;;;7.97;7.53;;;16.20;39.00;;;;;;6246530;22;20182;-77
2023/08/06 02:48:11;;;;;;;7.60;7.20;;;16.10;39.00;;;;;;6245466;23;20155;-76
2023/08/06 02:50:41;;;;;;;8.10;7.60;;;16.00;39.40;;;;;;6218616;23;20382;-77
2023/08/06 02:53:07;;;;;;;7.17;6.80;;;16.10;39.50;;;;;;6246491;23;20191;-77
2023/08/06 02:55:33;;;;;;;7.60;7.20;;;16.10;39.40;;;;;;6219001;22;20825;-77
2023/08/06 02:58:00;;;;;;;7.30;6.93;;;16.10;39.30;;;;;;6246630;23;20375;-76
2023/08/06 03:00:25;;;;;;;7.40;7.07;;;16.00;39.10;;;;;;6246406;23;20386;-76
2023/08/06 03:02:51;;;;;;;7.83;7.43;;;16.00;39.40;;;;;;6219251;23;20443;-76
2023/08/06 03:05:16;;;;;;;7.70;7.40;;;16.00;39.10;;;;;;6245782;23;20178;-78
2023/08/06 03:07:42;;;;;;;7.77;7.47;;;16.00;39.20;;;;;;6245471;22;20175;-76
2023/08/06 03:10:08;;;;;;;7.20;6.87;;;16.00;38.90;;;;;;6246130;23;20490;-76
2023/08/06 03:12:33;;;;;;;7.70;7.40;;;16.10;38.80;;;;;;6246540;23;20223;-77
2023/08/06 03:14:59;;;;;;;7.17;6.80;;;16.00;38.10;;;;;;6245608;23;20885;-76
2023/08/06 03:17:24;;;;;;;7.53;7.23;;;15.90;38.30;;;;;;6245253;22;20254;-76
2023/08/06 03:19:49;;;;;;;7.43;7.13;;;15.90;38.30;;;;;;6245312;23;20222;-77
2023/08/06 03:22:15;;;;;;;7.97;7.57;;;15.90;38.00;;;;;;6219043;23;20665;-76
2023/08/06 03:24:41;;;;;;;6.73;6.50;;;15.80;38.10;;;;;;6219854;23;20296;-77
2023/08/06 03:27:06;;;;;;;7.87;7.50;;;15.90;38.00;;;;;;6245868;22;20281;-77
2023/08/06 03:29:32;;;;;;;7.40;7.10;;;15.90;37.90;;;;;;6218419;23;20154;-76
2023/08/06 03:31:57;;;;;;;7.17;6.87;;;15.80;38.30;;;;;;6245792;23;20464;-76
2023/08/06 03:34:23;;;;;;;7.20;6.80;;;15.80;38.10;;;;;;6245701;23;20157;-76
2023/08/06 03:36:48;;;;;;;8.17;7.47;;;15.90;38.10;;;;;;6246264;22;20538;-77
2023/08/06 03:39:14;;;;;;;7.07;6.77;;;16.00;39.80;;;;;;6245107;23;20463;-76
2023/08/06 03:41:40;;;;;;;6.70;6.40;;;16.00;39.90;;;;;;6245131;23;20143;-76
2023/08/06 03:44:05;;;;;;;6.80;6.50;;;16.10;40.60;;;;;;6217917;23;20286;-77
2023/08/06 03:46:34;;;;;;;6.87;6.57;;;16.00;40.20;;;;;;6245268;22;20394;-77
2023/08/06 03:49:02;;;;;;;6.77;6.47;;;16.00;40.90;;;;;;6245988;23;20171;-77
2023/08/06 03:51:28;;;;;;;7.10;6.50;;;16.00;41.20;;;;;;6219062;23;20385;-77
2023/08/06 03:53:54;;;;;;;6.87;6.50;;;15.90;40.00;;;;;;6218673;23;20413;-75
2023/08/06 03:56:19;;;;;;;6.90;6.50;;;15.90;40.60;;;;;;6245884;22;20170;-77
2023/08/06 03:58:45;;;;;;;7.97;7.57;;;16.00;40.80;;;;;;6245220;23;20365;-77
2023/08/06 04:01:10;;;;;;;6.90;6.50;;;16.20;40.60;;;;;;6219970;23;20152;-77
2023/08/06 04:03:36;;;;;;;6.80;6.50;;;16.10;40.20;;;;;;6246217;23;20532;-77
2023/08/06 04:06:03;;;;;;;6.80;6.30;;;16.10;40.20;;;;;;6244943;22;20252;-77
2023/08/06 04:08:28;;;;;;;6.47;6.17;;;16.20;40.10;;;;;;6220579;23;20144;-77
2023/08/06 04:10:54;;;;;;;6.43;6.13;;;16.30;40.20;;;;;;6249009;23;20381;-77
2023/08/06 04:13:20;;;;;;;6.83;6.53;;;16.40;41.20;;;;;;6248663;23;20180;-77
2023/08/06 04:15:47;;;;;;;6.30;6.10;;;16.60;40.80;;;;;;6248358;22;20553;-77
2023/08/06 04:18:12;;;;;;;7.10;6.70;;;16.70;39.90;;;;;;6248272;23;20714;-77
2023/08/06 04:20:45;;;;;;;6.10;5.90;;;16.80;39.10;;;;;;6218016;23;20382;-77
2023/08/06 04:23:10;;;;;;;6.87;6.57;;;16.90;38.90;;;;;;6245427;23;20148;-77
2023/08/06 04:25:36;;;;;;;6.73;6.43;;;17.00;38.80;;;;;;6244615;22;20418;-75
2023/08/06 04:28:01;;;;;;;7.07;6.70;;;17.00;38.80;;;;;;6245542;23;20156;-77
2023/08/06 04:30:27;;;;;;;7.10;6.70;;;17.00;38.90;;;;;;6244960;23;20147;-76
2023/08/06 04:32:52;;;;;;;6.50;6.20;;;17.00;38.90;;;;;;6245001;23;20290;-76
2023/08/06 04:35:18;;;;;;;7.30;6.90;;;17.10;38.80;;;;;;6218199;23;20155;-76
2023/08/06 04:37:43;;;;;;;6.90;6.60;;;17.10;38.80;;;;;;6245247;22;20175;-76
2023/08/06 04:40:10;;;;;;;7.73;7.23;;;17.10;38.60;;;;;;6244967;23;20170;-77
2023/08/06 04:42:35;;;;;;;6.63;6.30;;;17.20;38.20;;;;;;6245145;23;20464;-77
2023/08/06 04:45:04;;;;;;;7.00;6.60;;;17.00;39.30;;;;;;6217933;23;20432;-76
2023/08/06 04:47:30;;;;;;;7.30;7.00;;;16.80;39.50;;;;;;6217828;23;20174;-76
2023/08/06 04:49:55;;;;;;;7.00;6.60;;;16.70;40.10;;;;;;6244121;23;20434;-76
2023/08/06 04:52:21;;;;;;;7.63;7.27;;;16.50;40.50;;;;;;6245056;23;20175;-76
2023/08/06 04:54:46;;;;;;;6.93;6.33;;;16.30;41.40;;;;;;6217954;23;20238;-75
2023/08/06 04:57:12;;;;;;;7.00;6.60;;;16.30;42.00;;;;;;6217127;23;20214;-76
2023/08/06 04:59:38;;;;;;;6.80;6.40;;;16.30;42.00;;;;;;6242326;23;20152;-76
2023/08/06 05:02:04;;;;;;;6.33;6.03;;;16.40;42.20;;;;;;6242675;23;20154;-76
2023/08/06 05:04:29;;;;;;;6.53;5.97;;;16.50;42.40;;;;;;6216442;23;20513;-76
2023/08/06 05:06:55;;;;;;;6.20;5.90;;;16.60;42.10;;;;;;6244329;22;20163;-77
2023/08/06 05:09:21;;;;;;;6.40;6.00;;;16.50;41.80;;;;;;6244128;23;20157;-76
2023/08/06 05:11:47;;;;;;;6.97;6.57;;;16.50;42.40;;;;;;6217384;23;20190;-76
2023/08/06 05:14:13;;;;;;;5.93;5.73;;;16.50;42.00;;;;;;6244803;23;20417;-76
2023/08/06 05:16:38;;;;;;;5.60;5.40;;;16.60;41.80;;;;;;6244924;22;20390;-76
2023/08/06 05:19:04;;;;;;;5.93;5.73;;;16.50;40.70;;;;;;6244369;23;20147;-75
2023/08/06 05:21:29;;;;;;;6.77;6.30;;;16.50;41.70;;;;;;6244613;23;20663;-76
2023/08/06 05:23:55;;;;;;;6.37;6.07;;;16.50;41.40;;;;;;6244562;23;20157;-76
2023/08/06 05:26:20;;;;;;;5.73;5.43;;;16.50;41.40;;;;;;6244712;22;20170;-76
2023/08/06 05:28:46;;;;;;;5.80;5.50;;;16.40;41.10;;;;;;6244452;23;20143;-76
2023/08/06 05:31:12;;;;;;;7.53;5.80;;;16.40;41.40;;;;;;6245619;23;20152;-75
2023/08/06 05:33:37;;;;;;;6.40;5.83;;;16.40;42.10;;;;;;6244976;23;20483;-75
2023/08/06 05:36:03;;;;;;;5.80;5.50;;;16.40;41.80;;;;;;6244445;22;20515;-76
2023/08/06 05:38:30;;;;;;;5.67;5.20;;;16.30;41.40;;;;;;6244543;23;20217;-76
2023/08/06 05:40:56;;;;;;;5.60;5.37;;;16.40;41.90;;;;;;6244840;23;20227;-76
2023/08/06 05:43:22;;;;;;;5.63;5.40;;;16.40;41.80;;;;;;6247820;23;20401;-77
2023/08/06 05:45:49;;;;;;;6.37;6.07;;;16.40;41.00;;;;;;6248700;22;20469;-77
2023/08/06 05:48:15;;;;;;;5.87;5.67;;;16.30;40.10;;;;;;6247222;23;20387;-77
2023/08/06 05:50:40;;;;;;;5.60;5.40;;;16.30;41.30;;;;;;6245702;23;20361;-78
2023/08/06 05:53:06;;;;;;;5.53;5.30;;;16.30;40.60;;;;;;6218912;23;20158;-77
2023/08/06 20:50:10;;;;;;;5.87;5.57;;;14.40;38.40;;;;;;6256210;22;20942;-77
2023/08/06 20:52:36;;;;;;;6.97;6.67;;;14.30;38.40;;;;;;6276023;22;20373;-76
2023/08/06 20:55:01;;;;;;;5.70;5.40;;;14.30;38.90;;;;;;6275806;22;20158;-77
2023/08/06 20:57:27;;;;;;;5.67;5.37;;;14.30;39.90;;;;;;6230153;23;20254;-77
2023/08/06 20:59:52;;;;;;;5.70;5.50;;;14.40;38.90;;;;;;6243893;23;20147;-77
2023/08/06 21:02:19;;;;;;;6.00;5.73;;;14.30;39.00;;;;;;6245089;23;20148;-77
2023/08/06 21:04:48;;;;;;;6.13;5.60;;;14.20;39.80;;;;;;6218134;23;20260;-77
2023/08/06 21:07:14;;;;;;;6.03;5.73;;;14.20;39.60;;;;;;6217286;23;20413;-77
2023/08/06 21:09:40;;;;;;;5.77;5.47;;;14.20;39.40;;;;;;6244851;23;20457;-77
2023/08/06 21:12:06;;;;;;;6.00;5.70;;;14.20;40.00;;;;;;6245627;23;20398;-77
2023/08/06 21:14:32;;;;;;;5.90;5.60;;;14.20;40.60;;;;;;6218619;23;20159;-77
2023/08/06 21:16:57;;;;;;;5.80;5.50;;;14.10;41.40;;;;;;6218231;23;21112;-77
2023/08/06 21:19:23;;;;;;;5.03;4.83;;;14.20;42.30;;;;;;6216740;23;20155;-77
2023/08/06 21:21:48;;;;;;;5.80;5.50;;;14.10;41.00;;;;;;6243785;23;20230;-77
2023/08/06 21:24:14;;;;;;;5.77;5.37;;;14.10;40.80;;;;;;6243635;23;20178;-77
2023/08/06 21:26:39;;;;;;;5.57;5.37;;;14.10;41.70;;;;;;6243645;22;20183;-77
2023/08/06 21:29:05;;;;;;;6.23;6.03;;;14.10;42.50;;;;;;6243392;23;20151;-76
2023/08/06 21:31:30;;;;;;;5.57;5.37;;;14.00;40.70;;;;;;6217154;23;20606;-77
2023/08/06 21:33:56;;;;;;;5.13;4.83;;;14.00;43.10;;;;;;6243757;23;20148;-77
2023/08/06 21:36:23;;;;;;;5.47;5.27;;;14.00;42.90;;;;;;6245523;22;20167;-76
2023/08/06 21:38:49;;;;;;;5.27;5.10;;;14.00;42.80;;;;;;6245540;23;20148;-77
2023/08/06 21:41:15;;;;;;;5.23;4.93;;;14.00;42.40;;;;;;6223277;23;20386;-77
2023/08/06 21:43:46;;;;;;;6.03;5.63;;;14.00;43.40;;;;;;6218388;23;20165;-75
2023/08/06 21:46:15;;;;;;;5.80;5.40;;;13.90;42.80;;;;;;6247884;22;20414;-75
2023/08/06 21:48:43;;;;;;;5.60;5.40;;;13.90;44.80;;;;;;6257152;23;20408;-75
2023/08/06 21:51:12;;;;;;;5.33;5.13;;;13.80;43.80;;;;;;6258354;23;20363;-76
2023/08/06 21:53:38;;;;;;;5.80;5.60;;;13.90;43.80;;;;;;6258982;23;20358;-77
2023/08/06 21:56:08;;;;;;;5.77;5.57;;;13.90;43.50;;;;;;6257942;22;20469;-77
2023/08/06 21:58:36;;;;;;;6.20;5.90;;;13.90;42.50;;;;;;6234256;23;20206;-78
2023/08/06 22:01:03;;;;;;;6.60;6.30;;;14.00;42.30;;;;;;6249992;23;20389;-77
2023/08/06 22:03:30;;;;;;;6.20;5.67;;;13.90;42.90;;;;;;6246898;23;20456;-76
2023/08/06 22:05:56;;;;;;;6.10;5.90;;;14.00;42.50;;;;;;6218816;23;20422;-77
2023/08/06 22:08:22;;;;;;;6.30;5.97;;;14.00;41.50;;;;;;6244064;22;20473;-77
2023/08/06 22:10:49;;;;;;;6.00;5.70;;;14.00;42.40;;;;;;6243540;23;20155;-77
2023/08/06 22:13:14;;;;;;;5.57;5.37;;;14.10;40.80;;;;;;6218173;23;20158;-77
2023/08/06 22:15:40;;;;;;;5.47;5.27;;;14.10;41.10;;;;;;6217906;23;20382;-77
2023/08/06 22:18:06;;;;;;;6.07;5.87;;;14.10;42.20;;;;;;6216889;23;20179;-78
2023/08/06 22:20:32;;;;;;;6.27;5.97;;;14.00;40.90;;;;;;6243406;23;20492;-77
2023/08/06 22:22:58;;;;;;;6.00;5.80;;;14.00;41.80;;;;;;6241462;23;20865;-77
2023/08/06 22:25:24;;;;;;;6.47;6.20;;;14.00;41.60;;;;;;6243247;23;20449;-77
2023/08/06 22:27:50;;;;;;;6.73;6.43;;;14.00;41.10;;;;;;6241944;22;20647;-77
2023/08/06 22:30:16;;;;;;;6.20;6.00;;;14.00;42.20;;;;;;6244106;23;20410;-77
2023/08/06 22:32:41;;;;;;;6.70;6.50;;;13.90;42.40;;;;;;6242041;23;20157;-77
2023/08/06 22:35:07;;;;;;;6.13;5.83;;;13.90;43.20;;;;;;6215853;23;20209;-77
2023/08/06 22:37:32;;;;;;;5.87;5.67;;;13.90;42.80;;;;;;6241929;22;20178;-77
2023/08/06 22:39:59;;;;;;;6.90;6.60;;;13.90;42.90;;;;;;6243043;23;20622;-77
2023/08/06 22:42:26;;;;;;;8.20;6.37;;;14.00;42.30;;;;;;6215107;23;20159;-77
2023/08/06 22:44:51;;;;;;;6.33;6.10;;;14.00;41.60;;;;;;6242632;23;20468;-77
2023/08/06 22:47:17;;;;;;;6.00;5.80;;;14.00;41.70;;;;;;6242756;22;20862;-76
2023/08/06 22:49:47;;;;;;;9.87;7.47;;;13.90;42.00;;;;;;6243318;23;20163;-77
2023/08/06 22:52:13;;;;;;;7.10;6.80;;;13.90;42.50;;;;;;6218959;23;20159;-77
2023/08/06 22:54:38;;;;;;;7.07;6.70;;;13.90;43.10;;;;;;6242691;23;20428;-77
2023/08/06 22:57:08;;;;;;;7.50;7.20;;;13.90;43.20;;;;;;6217509;23;20780;-76
2023/08/06 22:59:33;;;;;;;6.80;6.40;;;13.90;42.70;;;;;;6243668;23;20148;-76
2023/08/06 23:02:00;;;;;;;6.70;6.40;;;13.90;41.90;;;;;;6245109;23;20384;-77
2023/08/06 23:04:26;;;;;;;5.93;5.67;;;13.80;42.50;;;;;;6246031;23;20486;-77
2023/08/06 23:06:51;;;;;;;8.60;6.33;;;13.80;42.50;;;;;;6215952;23;20402;-77
2023/08/06 23:09:17;;;;;;;6.07;5.83;;;13.90;43.30;;;;;;6216034;23;20922;-77
2023/08/06 23:11:43;;;;;;;6.77;6.47;;;13.90;43.00;;;;;;6242324;23;20370;-77
2023/08/06 23:14:08;;;;;;;42.00;14.97;;;13.90;42.70;;;;;;6243150;23;20148;-75
2023/08/06 23:16:34;;;;;;;8.93;7.90;;;13.90;42.90;;;;;;6217843;23;20631;-76
2023/08/06 23:18:59;;;;;;;7.97;7.37;;;13.90;42.50;;;;;;6244971;23;20215;-77
2023/08/06 23:21:25;;;;;;;7.83;7.43;;;13.90;42.40;;;;;;6243462;23;20202;-77
2023/08/06 23:23:50;;;;;;;6.63;6.33;;;13.80;42.00;;;;;;6242535;23;20479;-77
2023/08/06 23:26:16;;;;;;;6.63;6.33;;;13.90;43.30;;;;;;6215750;22;20179;-77
2023/08/06 23:28:44;;;;;;;7.03;6.80;;;13.80;42.40;;;;;;6243549;23;20143;-76
2023/08/06 23:31:13;;;;;;;6.20;5.90;;;13.80;42.40;;;;;;6216524;23;20195;-77
2023/08/06 23:33:39;;;;;;;6.97;6.60;;;13.80;42.00;;;;;;6242383;23;20380;-77
2023/08/06 23:36:04;;;;;;;6.80;6.60;;;13.80;42.90;;;;;;6215921;22;20465;-76
2023/08/06 23:38:30;;;;;;;6.70;6.40;;;13.70;42.20;;;;;;6216798;23;20414;-77
2023/08/06 23:40:55;;;;;;;6.90;6.53;;;13.70;42.50;;;;;;6241404;23;20622;-76
2023/08/06 23:43:21;;;;;;;7.17;6.57;;;13.80;42.00;;;;;;6241590;23;20588;-77
2023/08/06 23:45:46;;;;;;;7.17;6.73;;;13.70;42.00;;;;;;6242744;23;20175;-76
2023/08/06 23:48:12;;;;;;;6.83;6.53;;;13.80;42.80;;;;;;6244500;22;20171;-77
2023/08/06 23:50:38;;;;;;;6.47;6.07;;;13.70;43.00;;;;;;6213469;23;20174;-76
2023/08/06 23:53:04;;;;;;;7.37;6.87;;;13.80;42.10;;;;;;6216003;23;20154;-76
2023/08/06 23:55:30;;;;;;;5.93;5.73;;;13.70;40.80;;;;;;6214007;23;20159;-76
2023/08/06 23:57:55;;;;;;;6.27;6.00;;;13.80;41.60;;;;;;6215406;23;20493;-77
